sensor_id;sensor_type;location;lat;lon;timestamp;pressure;altitude;pressure_sealevel;temperature;humidity
44127;BME280;29786;50.798;7.302;2023-04-22T00:02:31;98480;;;10.66;100
44127;BME280;29786;50.798;7.302;2023-04-22T00:07:28;98480;;;10.73;100
44127;BME280;29786;50.798;7.302;2023-04-22T00:13:38;98470;;;10.7;100
44127;BME280;29786;50.798;7.302;2023-04-22T00:18:35;98480;;;10.64;100
44127;BME280;29786;50.798;7.302;2023-04-22T00:23:32;98460;;;10.36;100
44127;BME280;29786;50.798;7.302;2023-04-22T00:28:28;98470;;;10.31;100
44127;BME280;29786;50.798;7.302;2023-04-22T00:34:39;98470;;;10.4;100
44127;BME280;29786;50.798;7.302;2023-04-22T00:39:35;98470;;;10.51;100
44127;BME280;29786;50.798;7.302;2023-04-22T00:44:32;98450;;;10.41;100
44127;BME280;29786;50.798;7.302;2023-04-22T00:49:28;98470;;;10.44;100
44127;BME280;29786;50.798;7.302;2023-04-22T00:54:25;98480;;;10.56;100
44127;BME280;29786;50.798;7.302;2023-04-22T01:00:36;98490;;;10.71;100
44127;BME280;29786;50.798;7.302;2023-04-22T01:05:32;98460;;;10.66;100
44127;BME280;29786;50.798;7.302;2023-04-22T01:10:29;98480;;;10.92;100
44127;BME280;29786;50.798;7.302;2023-04-22T01:15:25;98480;;;10.84;100
44127;BME280;29786;50.798;7.302;2023-04-22T01:21:37;98480;;;10.88;100
44127;BME280;29786;50.798;7.302;2023-04-22T01:26:33;98480;;;10.86;100
44127;BME280;29786;50.798;7.302;2023-04-22T01:31:29;98480;;;10.98;100
44127;BME280;29786;50.798;7.302;2023-04-22T01:36:26;98480;;;10.97;100
44127;BME280;29786;50.798;7.302;2023-04-22T01:42:36;98480;;;10.98;100
44127;BME280;29786;50.798;7.302;2023-04-22T01:47:33;98470;;;10.87;100
44127;BME280;29786;50.798;7.302;2023-04-22T01:52:29;98470;;;10.91;100
44127;BME280;29786;50.798;7.302;2023-04-22T01:57:26;98480;;;10.95;100
44127;BME280;29786;50.798;7.302;2023-04-22T02:03:36;98460;;;10.87;100
44127;BME280;29786;50.798;7.302;2023-04-22T02:08:33;98460;;;11.01;100
44127;BME280;29786;50.798;7.302;2023-04-22T02:13:35;98460;;;11.05;100
44127;BME280;29786;50.798;7.302;2023-04-22T02:18:26;98460;;;10.96;100
44127;BME280;29786;50.798;7.302;2023-04-22T02:24:37;98460;;;10.97;100
44127;BME280;29786;50.798;7.302;2023-04-22T02:29:33;98450;;;10.9;100
44127;BME280;29786;50.798;7.302;2023-04-22T02:34:30;98450;;;10.9;100
44127;BME280;29786;50.798;7.302;2023-04-22T02:39:26;98440;;;10.88;100
44127;BME280;29786;50.798;7.302;2023-04-22T02:45:37;98460;;;10.86;100
44127;BME280;29786;50.798;7.302;2023-04-22T02:50:33;98450;;;10.91;100
44127;BME280;29786;50.798;7.302;2023-04-22T02:55:30;98450;;;10.94;100
44127;BME280;29786;50.798;7.302;2023-04-22T03:06:37;98440;;;10.97;100
44127;BME280;29786;50.798;7.302;2023-04-22T03:11:34;98440;;;10.8;100
44127;BME280;29786;50.798;7.302;2023-04-22T03:16:31;98430;;;10.69;100
44127;BME280;29786;50.798;7.302;2023-04-22T03:21:27;98430;;;10.8;100
44127;BME280;29786;50.798;7.302;2023-04-22T03:27:37;98430;;;10.82;100
44127;BME280;29786;50.798;7.302;2023-04-22T03:32:34;98430;;;10.65;100
44127;BME280;29786;50.798;7.302;2023-04-22T03:37:30;98440;;;10.67;100
44127;BME280;29786;50.798;7.302;2023-04-22T03:42:27;98430;;;10.65;100
44127;BME280;29786;50.798;7.302;2023-04-22T03:48:38;98420;;;10.57;100
44127;BME280;29786;50.798;7.302;2023-04-22T03:53:34;98430;;;10.63;100
44127;BME280;29786;50.798;7.302;2023-04-22T03:58:31;98420;;;10.63;100
44127;BME280;29786;50.798;7.302;2023-04-22T04:03:27;98420;;;10.58;100
44127;BME280;29786;50.798;7.302;2023-04-22T04:09:38;98410;;;10.6;100
44127;BME280;29786;50.798;7.302;2023-04-22T04:14:35;98400;;;10.68;100
44127;BME280;29786;50.798;7.302;2023-04-22T04:19:31;98400;;;10.61;100
44127;BME280;29786;50.798;7.302;2023-04-22T04:24:27;98390;;;10.52;100
44127;BME280;29786;50.798;7.302;2023-04-22T04:30:38;98400;;;10.71;100
44127;BME280;29786;50.798;7.302;2023-04-22T04:35:35;98390;;;10.69;100
44127;BME280;29786;50.798;7.302;2023-04-22T04:40:32;98390;;;10.71;100
44127;BME280;29786;50.798;7.302;2023-04-22T04:45:28;98390;;;10.82;100
44127;BME280;29786;50.798;7.302;2023-04-22T04:51:38;98390;;;10.9;100
44127;BME280;29786;50.798;7.302;2023-04-22T04:56:35;98380;;;10.99;100
44127;BME280;29786;50.798;7.302;2023-04-22T05:01:32;98350;;;10.95;100
44127;BME280;29786;50.798;7.302;2023-04-22T05:06:28;98380;;;11.14;100
44127;BME280;29786;50.798;7.302;2023-04-22T05:11:33;98390;;;11.19;100
44127;BME280;29786;50.798;7.302;2023-04-22T05:16:30;98400;;;11.29;100
44127;BME280;29786;50.798;7.302;2023-04-22T05:21:26;98400;;;11.33;100
44127;BME280;29786;50.798;7.302;2023-04-22T05:27:36;98400;;;11.59;100
44127;BME280;29786;50.798;7.302;2023-04-22T05:32:33;98400;;;11.63;100
44127;BME280;29786;50.798;7.302;2023-04-22T05:37:30;98400;;;11.86;100
44127;BME280;29786;50.798;7.302;2023-04-22T05:42:26;98400;;;11.94;100
44127;BME280;29786;50.798;7.302;2023-04-22T05:48:37;98410;;;12.45;100
44127;BME280;29786;50.798;7.302;2023-04-22T05:53:33;98400;;;12.61;100
44127;BME280;29786;50.798;7.302;2023-04-22T05:58:30;98400;;;12.73;100
44127;BME280;29786;50.798;7.302;2023-04-22T06:03:31;98410;;;12.85;100
44127;BME280;29786;50.798;7.302;2023-04-22T06:09:37;98410;;;13.1;100
44127;BME280;29786;50.798;7.302;2023-04-22T06:14:34;98400;;;13.02;100
44127;BME280;29786;50.798;7.302;2023-04-22T06:19:30;98400;;;12.97;100
44127;BME280;29786;50.798;7.302;2023-04-22T06:24:27;98390;;;12.94;100
44127;BME280;29786;50.798;7.302;2023-04-22T06:30:37;98380;;;13.23;100
44127;BME280;29786;50.798;7.302;2023-04-22T06:35:34;98380;;;13.28;100
44127;BME280;29786;50.798;7.302;2023-04-22T06:40:30;98390;;;13.42;100
44127;BME280;29786;50.798;7.302;2023-04-22T06:45:27;98400;;;13.3;100
44127;BME280;29786;50.798;7.302;2023-04-22T06:51:38;98400;;;13.37;100
44127;BME280;29786;50.798;7.302;2023-04-22T06:56:34;98390;;;13.53;100
44127;BME280;29786;50.798;7.302;2023-04-22T07:01:36;98390;;;14.18;100
44127;BME280;29786;50.798;7.302;2023-04-22T07:06:27;98390;;;14.6;97.65
44127;BME280;29786;50.798;7.302;2023-04-22T07:12:38;98400;;;14.63;96.52
44127;BME280;29786;50.798;7.302;2023-04-22T07:17:34;98400;;;15.2;92.57
44127;BME280;29786;50.798;7.302;2023-04-22T07:22:31;98390;;;15.51;86.7
44127;BME280;29786;50.798;7.302;2023-04-22T07:27:27;98380;;;15.62;84.8
44127;BME280;29786;50.798;7.302;2023-04-22T07:32:24;98380;;;15.96;79.9
44127;BME280;29786;50.798;7.302;2023-04-22T07:38:35;98380;;;16.19;80
44127;BME280;29786;50.798;7.302;2023-04-22T07:43:31;98380;;;16.68;77.71
44127;BME280;29786;50.798;7.302;2023-04-22T07:48:28;98380;;;16.64;75.47
44127;BME280;29786;50.798;7.302;2023-04-22T07:54:43;98370;;;16.78;74.85
44127;BME280;29786;50.798;7.302;2023-04-22T07:59:35;98370;;;16.9;74.78
44127;BME280;29786;50.798;7.302;2023-04-22T08:04:31;98340;;;17.08;69.96
44127;BME280;29786;50.798;7.302;2023-04-22T08:09:28;98360;;;17.76;63.43
44127;BME280;29786;50.798;7.302;2023-04-22T08:15:39;98360;;;17.74;65.58
44127;BME280;29786;50.798;7.302;2023-04-22T08:20:35;98350;;;18.27;61.9
44127;BME280;29786;50.798;7.302;2023-04-22T08:25:32;98320;;;18.18;60.98
44127;BME280;29786;50.798;7.302;2023-04-22T08:30:29;98340;;;18.62;59.37
44127;BME280;29786;50.798;7.302;2023-04-22T08:35:25;98340;;;19;58
44127;BME280;29786;50.798;7.302;2023-04-22T08:41:35;98330;;;19.07;56.16
44127;BME280;29786;50.798;7.302;2023-04-22T08:46:32;98320;;;18.91;57.56
44127;BME280;29786;50.798;7.302;2023-04-22T08:51:29;98320;;;19.25;56.83
44127;BME280;29786;50.798;7.302;2023-04-22T08:56:25;98320;;;18.83;55.67
44127;BME280;29786;50.798;7.302;2023-04-22T09:02:36;98320;;;19.09;55.04
44127;BME280;29786;50.798;7.302;2023-04-22T09:12:29;98310;;;18.89;53.11
44127;BME280;29786;50.798;7.302;2023-04-22T09:17:29;98300;;;18.92;51.45
44127;BME280;29786;50.798;7.302;2023-04-22T09:23:44;98290;;;18.87;51.19
44127;BME280;29786;50.798;7.302;2023-04-22T09:28:32;98290;;;18.87;50.36
44127;BME280;29786;50.798;7.302;2023-04-22T09:33:30;98300;;;18.66;51.82
44127;BME280;29786;50.798;7.302;2023-04-22T09:44:36;98300;;;19.16;51.73
44127;BME280;29786;50.798;7.302;2023-04-22T09:49:36;98290;;;19.12;50.92
44127;BME280;29786;50.798;7.302;2023-04-22T09:54:30;98290;;;19.53;50.33
44127;BME280;29786;50.798;7.302;2023-04-22T09:59:27;98290;;;19.59;49.98
44127;BME280;29786;50.798;7.302;2023-04-22T10:05:36;98280;;;19.25;50.82
44127;BME280;29786;50.798;7.302;2023-04-22T10:10:33;98270;;;19.87;49.62
44127;BME280;29786;50.798;7.302;2023-04-22T10:15:34;98280;;;20.96;48.16
44127;BME280;29786;50.798;7.302;2023-04-22T10:20:26;98280;;;21.25;47.05
44127;BME280;29786;50.798;7.302;2023-04-22T10:26:54;98290;;;21.9;45.34
44127;BME280;29786;50.798;7.302;2023-04-22T10:31:36;98290;;;20.33;47.02
44127;BME280;29786;50.798;7.302;2023-04-22T10:36:30;98300;;;20.78;45.9
44127;BME280;29786;50.798;7.302;2023-04-22T10:41:28;98290;;;21.4;46.5
44127;BME280;29786;50.798;7.302;2023-04-22T10:47:37;98300;;;21.49;45.67
44127;BME280;29786;50.798;7.302;2023-04-22T10:52:34;98290;;;20.94;46.35
44127;BME280;29786;50.798;7.302;2023-04-22T10:57:32;98310;;;21.27;46.19
44127;BME280;29786;50.798;7.302;2023-04-22T11:02:27;98310;;;20.6;46.98
44127;BME280;29786;50.798;7.302;2023-04-22T11:08:37;98320;;;21.33;46.25
44127;BME280;29786;50.798;7.302;2023-04-22T11:13:34;98310;;;22.21;45.2
44127;BME280;29786;50.798;7.302;2023-04-22T11:18:31;98300;;;22.78;44.61
44127;BME280;29786;50.798;7.302;2023-04-22T11:23:27;98310;;;22.9;44.18
44127;BME280;29786;50.798;7.302;2023-04-22T11:29:38;98310;;;22.07;43.65
44127;BME280;29786;50.798;7.302;2023-04-22T11:34:39;98300;;;23.18;44.08
44127;BME280;29786;50.798;7.302;2023-04-22T11:39:38;98320;;;22.67;42.6
44127;BME280;29786;50.798;7.302;2023-04-22T11:44:27;98320;;;22.02;42.88
44127;BME280;29786;50.798;7.302;2023-04-22T11:50:39;98320;;;21.68;44.17
44127;BME280;29786;50.798;7.302;2023-04-22T11:55:37;98320;;;21.53;44.55
44127;BME280;29786;50.798;7.302;2023-04-22T12:00:33;98320;;;21.6;45.11
44127;BME280;29786;50.798;7.302;2023-04-22T12:05:45;98320;;;22.14;44.88
44127;BME280;29786;50.798;7.302;2023-04-22T12:11:38;98320;;;21.65;44.34
44127;BME280;29786;50.798;7.302;2023-04-22T12:16:39;98310;;;22.45;43.94
44127;BME280;29786;50.798;7.302;2023-04-22T12:21:31;98310;;;23.53;42.28
44127;BME280;29786;50.798;7.302;2023-04-22T12:26:28;98300;;;24.83;40.99
44127;BME280;29786;50.798;7.302;2023-04-22T12:31:25;98300;;;23.46;41.7
44127;BME280;29786;50.798;7.302;2023-04-22T12:33:52;98300;;;22.96;43.16
44127;BME280;29786;50.798;7.302;2023-04-22T12:37:35;98300;;;22.21;44.11
44127;BME280;29786;50.798;7.302;2023-04-22T12:42:31;98280;;;22.85;43.55
44127;BME280;29786;50.798;7.302;2023-04-22T12:47:28;98290;;;23.61;42.69
44127;BME280;29786;50.798;7.302;2023-04-22T12:53:39;98290;;;24.42;40.43
44127;BME280;29786;50.798;7.302;2023-04-22T12:58:35;98290;;;23.45;43.05
44127;BME280;29786;50.798;7.302;2023-04-22T13:03:32;98270;;;21.47;46.03
44127;BME280;29786;50.798;7.302;2023-04-22T13:08:28;98300;;;21.31;47.72
44127;BME280;29786;50.798;7.302;2023-04-22T13:13:25;98290;;;20.51;49.86
44127;BME280;29786;50.798;7.302;2023-04-22T13:19:36;98290;;;20.5;50.67
44127;BME280;29786;50.798;7.302;2023-04-22T13:24:32;98270;;;20.01;51.76
44127;BME280;29786;50.798;7.302;2023-04-22T13:29:29;98290;;;20.2;52.26
44127;BME280;29786;50.798;7.302;2023-04-22T13:34:25;98290;;;20.37;51.77
44127;BME280;29786;50.798;7.302;2023-04-22T13:40:36;98290;;;20.46;52.37
44127;BME280;29786;50.798;7.302;2023-04-22T13:50:29;98290;;;19.95;53.43
44127;BME280;29786;50.798;7.302;2023-04-22T13:55:31;98290;;;19.79;54.36
44127;BME280;29786;50.798;7.302;2023-04-22T14:01:36;98290;;;19.45;57.11
44127;BME280;29786;50.798;7.302;2023-04-22T14:06:32;98300;;;18.87;58.04
44127;BME280;29786;50.798;7.302;2023-04-22T14:11:29;98300;;;18.49;59.89
44127;BME280;29786;50.798;7.302;2023-04-22T14:22:36;98300;;;17.7;72.18
44127;BME280;29786;50.798;7.302;2023-04-22T14:27:33;98310;;;17.5;76.12
44127;BME280;29786;50.798;7.302;2023-04-22T14:32:29;98300;;;17.6;81.92
44127;BME280;29786;50.798;7.302;2023-04-22T14:37:26;98300;;;17.76;80.1
44127;BME280;29786;50.798;7.302;2023-04-22T14:43:37;98300;;;17.79;77.79
44127;BME280;29786;50.798;7.302;2023-04-22T14:48:33;98300;;;17.99;75.15
44127;BME280;29786;50.798;7.302;2023-04-22T14:53:30;98300;;;18.42;79.56
44127;BME280;29786;50.798;7.302;2023-04-22T14:58:26;98310;;;19.12;72.42
44127;BME280;29786;50.798;7.302;2023-04-22T15:04:42;98300;;;20.02;67.98
44127;BME280;29786;50.798;7.302;2023-04-22T15:09:40;98300;;;20.2;65.72
44127;BME280;29786;50.798;7.302;2023-04-22T15:14:36;98300;;;19.98;70.32
44127;BME280;29786;50.798;7.302;2023-04-22T15:19:27;98310;;;19.53;70.15
44127;BME280;29786;50.798;7.302;2023-04-22T15:25:37;98300;;;19.04;69.3
44127;BME280;29786;50.798;7.302;2023-04-22T15:30:34;98300;;;18.77;70.86
44127;BME280;29786;50.798;7.302;2023-04-22T15:34:16;98300;;;18.71;70.53
44127;BME280;29786;50.798;7.302;2023-04-22T15:35:30;98300;;;18.76;71.25
44127;BME280;29786;50.798;7.302;2023-04-22T15:46:37;98300;;;18.45;74.59
44127;BME280;29786;50.798;7.302;2023-04-22T15:51:34;98290;;;18.42;75.06
44127;BME280;29786;50.798;7.302;2023-04-22T15:56:31;98290;;;18.45;67.24
44127;BME280;29786;50.798;7.302;2023-04-22T16:01:27;98290;;;18.34;66.18
44127;BME280;29786;50.798;7.302;2023-04-22T16:07:38;98290;;;18.2;64.7
44127;BME280;29786;50.798;7.302;2023-04-22T16:12:34;98290;;;18.04;67.43
44127;BME280;29786;50.798;7.302;2023-04-22T16:17:30;98310;;;17.79;71.82
44127;BME280;29786;50.798;7.302;2023-04-22T16:22:27;98310;;;17.31;78.31
44127;BME280;29786;50.798;7.302;2023-04-22T16:28:38;98310;;;16.96;83.26
44127;BME280;29786;50.798;7.302;2023-04-22T16:33:35;98310;;;16.92;85.72
44127;BME280;29786;50.798;7.302;2023-04-22T16:38:31;98310;;;16.77;88.41
44127;BME280;29786;50.798;7.302;2023-04-22T16:43:27;98310;;;16.56;93.15
44127;BME280;29786;50.798;7.302;2023-04-22T16:49:38;98300;;;16.04;100
44127;BME280;29786;50.798;7.302;2023-04-22T16:54:35;98300;;;15.88;100
44127;BME280;29786;50.798;7.302;2023-04-22T16:59:31;98300;;;15.95;100
44127;BME280;29786;50.798;7.302;2023-04-22T17:04:28;98300;;;16.12;100
44127;BME280;29786;50.798;7.302;2023-04-22T17:10:38;98300;;;16.14;100
44127;BME280;29786;50.798;7.302;2023-04-22T17:15:35;98310;;;16.02;100
44127;BME280;29786;50.798;7.302;2023-04-22T17:20:31;98300;;;15.89;100
44127;BME280;29786;50.798;7.302;2023-04-22T17:25:28;98310;;;15.93;100
44127;BME280;29786;50.798;7.302;2023-04-22T17:31:39;98340;;;15.83;100
44127;BME280;29786;50.798;7.302;2023-04-22T17:35:29;98350;;;15.04;100
44127;BME280;29786;50.798;7.302;2023-04-22T17:40:26;98350;;;14.36;100
44127;BME280;29786;50.798;7.302;2023-04-22T17:46:36;98330;;;14.11;100
44127;BME280;29786;50.798;7.302;2023-04-22T17:51:33;98340;;;14.03;100
44127;BME280;29786;50.798;7.302;2023-04-22T17:56:29;98350;;;14.17;100
44127;BME280;29786;50.798;7.302;2023-04-22T18:01:26;98350;;;14.14;100
44127;BME280;29786;50.798;7.302;2023-04-22T18:07:37;98350;;;14.09;100
44127;BME280;29786;50.798;7.302;2023-04-22T18:12:33;98360;;;13.96;100
44127;BME280;29786;50.798;7.302;2023-04-22T18:17:30;98360;;;14.06;100
44127;BME280;29786;50.798;7.302;2023-04-22T18:22:26;98370;;;13.97;100
44127;BME280;29786;50.798;7.302;2023-04-22T18:28:37;98370;;;14.18;100
44127;BME280;29786;50.798;7.302;2023-04-22T18:33:33;98380;;;14;100
44127;BME280;29786;50.798;7.302;2023-04-22T18:38:30;98370;;;13.96;100
44127;BME280;29786;50.798;7.302;2023-04-22T18:49:37;98380;;;13.98;100
44127;BME280;29786;50.798;7.302;2023-04-22T18:54:34;98380;;;14.01;100
44127;BME280;29786;50.798;7.302;2023-04-22T18:59:30;98390;;;14.26;100
44127;BME280;29786;50.798;7.302;2023-04-22T19:04:27;98390;;;14.16;100
44127;BME280;29786;50.798;7.302;2023-04-22T19:10:37;98380;;;14.13;100
44127;BME280;29786;50.798;7.302;2023-04-22T19:15:34;98390;;;14.08;100
44127;BME280;29786;50.798;7.302;2023-04-22T19:20:31;98390;;;14.06;100
44127;BME280;29786;50.798;7.302;2023-04-22T19:25:27;98400;;;14.11;100
44127;BME280;29786;50.798;7.302;2023-04-22T19:31:38;98400;;;14.2;100
44127;BME280;29786;50.798;7.302;2023-04-22T19:36:34;98400;;;14.22;100
44127;BME280;29786;50.798;7.302;2023-04-22T19:41:31;98400;;;14.37;100
44127;BME280;29786;50.798;7.302;2023-04-22T19:46:27;98400;;;14.29;100
44127;BME280;29786;50.798;7.302;2023-04-22T19:52:38;98400;;;14.35;100
44127;BME280;29786;50.798;7.302;2023-04-22T19:57:35;98400;;;14.28;100
44127;BME280;29786;50.798;7.302;2023-04-22T20:02:33;98400;;;14.25;100
44127;BME280;29786;50.798;7.302;2023-04-22T20:07:27;98400;;;14.3;100
44127;BME280;29786;50.798;7.302;2023-04-22T20:13:38;98410;;;14.28;100
44127;BME280;29786;50.798;7.302;2023-04-22T20:18:35;98410;;;14.31;100
44127;BME280;29786;50.798;7.302;2023-04-22T20:23:31;98410;;;14.25;100
44127;BME280;29786;50.798;7.302;2023-04-22T20:28:35;98410;;;14.12;100
44127;BME280;29786;50.798;7.302;2023-04-22T20:34:38;98400;;;14.06;100
44127;BME280;29786;50.798;7.302;2023-04-22T20:39:35;98400;;;14.16;100
44127;BME280;29786;50.798;7.302;2023-04-22T20:44:31;98390;;;13.98;100
44127;BME280;29786;50.798;7.302;2023-04-22T20:49:28;98410;;;14.14;100
44127;BME280;29786;50.798;7.302;2023-04-22T20:55:39;98410;;;14.09;100
44127;BME280;29786;50.798;7.302;2023-04-22T21:00:35;98410;;;14.02;100
44127;BME280;29786;50.798;7.302;2023-04-22T21:05:32;98390;;;13.94;100
44127;BME280;29786;50.798;7.302;2023-04-22T21:10:28;98400;;;14.03;100
44127;BME280;29786;50.798;7.302;2023-04-22T21:16:39;98400;;;14.11;100
44127;BME280;29786;50.798;7.302;2023-04-22T21:21:35;98400;;;14.16;100
44127;BME280;29786;50.798;7.302;2023-04-22T21:26:32;98400;;;13.97;100
44127;BME280;29786;50.798;7.302;2023-04-22T21:31:29;98420;;;13.4;100
44127;BME280;29786;50.798;7.302;2023-04-22T21:36:25;98420;;;13.12;100
44127;BME280;29786;50.798;7.302;2023-04-22T21:42:36;98430;;;12.86;100
44127;BME280;29786;50.798;7.302;2023-04-22T21:47:32;98440;;;12.41;100
44127;BME280;29786;50.798;7.302;2023-04-22T21:52:29;98430;;;12.29;100
44127;BME280;29786;50.798;7.302;2023-04-22T21:57:25;98440;;;12.16;100
44127;BME280;29786;50.798;7.302;2023-04-22T22:03:36;98450;;;12.02;100
44127;BME280;29786;50.798;7.302;2023-04-22T22:08:33;98460;;;11.91;100
44127;BME280;29786;50.798;7.302;2023-04-22T22:13:29;98450;;;11.74;100
44127;BME280;29786;50.798;7.302;2023-04-22T22:18:26;98460;;;11.6;100
44127;BME280;29786;50.798;7.302;2023-04-22T22:24:36;98470;;;11.41;100
44127;BME280;29786;50.798;7.302;2023-04-22T22:29:33;98470;;;11.24;100
44127;BME280;29786;50.798;7.302;2023-04-22T22:34:29;98460;;;11.12;100
44127;BME280;29786;50.798;7.302;2023-04-22T22:39:26;98470;;;11.14;100
44127;BME280;29786;50.798;7.302;2023-04-22T22:45:37;98470;;;11.18;100
44127;BME280;29786;50.798;7.302;2023-04-22T22:50:33;98470;;;11.17;100
44127;BME280;29786;50.798;7.302;2023-04-22T22:55:30;98480;;;10.98;100
44127;BME280;29786;50.798;7.302;2023-04-22T23:00:26;98470;;;11;100
44127;BME280;29786;50.798;7.302;2023-04-22T23:06:37;98470;;;11.01;100
44127;BME280;29786;50.798;7.302;2023-04-22T23:11:33;98470;;;11.02;100
44127;BME280;29786;50.798;7.302;2023-04-22T23:16:30;98480;;;11.06;100
44127;BME280;29786;50.798;7.302;2023-04-22T23:21:26;98470;;;11.03;100
44127;BME280;29786;50.798;7.302;2023-04-22T23:27:37;98480;;;11.15;100
44127;BME280;29786;50.798;7.302;2023-04-22T23:32:34;98480;;;11.19;100
44127;BME280;29786;50.798;7.302;2023-04-22T23:37:30;98460;;;10.95;100
44127;BME280;29786;50.798;7.302;2023-04-22T23:42:27;98470;;;11.12;100
44127;BME280;29786;50.798;7.302;2023-04-22T23:48:37;98470;;;10.94;100
44127;BME280;29786;50.798;7.302;2023-04-22T23:53:34;98470;;;10.69;100
44127;BME280;29786;50.798;7.302;2023-04-22T23:58:31;98460;;;10.72;100
